Time;durP1;ratioP1;P1;durP2;ratioP2;P2;SDS_P1;SDS_P2;PMS_P1;PMS_P2;Temp;Humidity;BMP_temperature;BMP_pressure;BME280_temperature;BME280_humidity;BME280_pressure;Samples;Min_cycle;Max_cycle;Signal;HPM_P1;HPM_P2
2023/09/05 00:00:22;;;;;;;5.82;2.78;;;;;;;25.54;51.64;100962.09;5049978;28;20764;-61
2023/09/05 00:02:50;;;;;;;6.95;3.20;;;;;;;25.58;51.67;100962.84;5053320;28;20045;-61
2023/09/05 00:05:19;;;;;;;6.05;3.25;;;;;;;25.56;51.28;100968.09;5051907;28;20056;-60
2023/09/05 00:07:47;;;;;;;7.32;3.28;;;;;;;25.66;51.34;100966.47;5053623;28;20053;-61
2023/09/05 00:10:14;;;;;;;5.25;3.00;;;;;;;25.48;52.09;100970.16;5052423;28;20861;-62
2023/09/05 00:12:43;;;;;;;7.22;2.85;;;;;;;25.31;52.15;100968.19;5040002;28;20060;-63
2023/09/05 00:15:12;;;;;;;6.07;3.00;;;;;;;25.25;51.58;100969.78;5033640;28;20057;-61
2023/09/05 00:17:42;;;;;;;5.30;3.10;;;;;;;25.28;52.05;100971.78;5045513;28;20045;-61
2023/09/05 00:20:11;;;;;;;6.25;2.80;;;;;;;25.16;51.75;100969.41;5051023;28;20307;-61
2023/09/05 00:22:38;;;;;;;7.50;3.10;;;;;;;24.99;52.58;100967.44;5056565;28;20044;-62
2023/09/05 00:25:06;;;;;;;6.45;3.22;;;;;;;25.15;52.16;100962.16;5062765;28;20294;-62
2023/09/05 00:27:35;;;;;;;5.57;3.28;;;;;;;25.05;52.32;100963.00;5051516;28;20115;-61
2023/09/05 00:30:03;;;;;;;4.30;2.70;;;;;;;25.15;52.39;100956.53;5034804;28;20416;-61
2023/09/05 00:32:32;;;;;;;5.68;3.10;;;;;;;25.14;52.04;100962.59;5053319;28;20053;-61
2023/09/05 00:35:00;;;;;;;7.18;3.10;;;;;;;25.00;52.32;100956.97;5052732;28;20063;-62
2023/09/05 00:37:30;;;;;;;7.35;3.03;;;;;;;24.87;52.86;100958.59;5071125;28;20056;-61
2023/09/05 00:39:57;;;;;;;8.97;3.20;;;;;;;24.78;53.34;100949.72;5057138;28;20451;-61
2023/09/05 00:42:26;;;;;;;7.00;3.40;;;;;;;24.78;53.63;100946.91;5047806;28;20049;-62
2023/09/05 00:44:53;;;;;;;8.63;3.20;;;;;;;24.73;53.30;100948.13;5031457;28;20365;-62
2023/09/05 00:47:22;;;;;;;6.68;3.25;;;;;;;24.63;53.60;100948.91;5037826;28;20056;-62
2023/09/05 00:49:50;;;;;;;5.57;2.92;;;;;;;24.86;53.04;100949.31;5051802;28;20049;-61
2023/09/05 00:52:18;;;;;;;4.95;2.88;;;;;;;25.05;53.12;100950.91;5064262;28;20060;-61
2023/09/05 00:54:45;;;;;;;7.10;2.90;;;;;;;25.14;53.26;100956.94;5043955;28;20064;-61
2023/09/05 00:57:19;;;;;;;10.55;3.55;;;;;;;25.10;53.08;100947.69;5051637;28;20084;-62
2023/09/05 00:59:47;;;;;;;6.32;3.15;;;;;;;24.87;52.81;100947.31;5060265;28;20048;-62
2023/09/05 01:02:14;;;;;;;6.15;3.00;;;;;;;24.86;53.20;100952.13;5063162;28;20048;-61
2023/09/05 01:04:43;;;;;;;9.73;3.30;;;;;;;24.90;53.41;100949.31;5051096;28;20549;-62
2023/09/05 01:07:39;;;;;;;7.63;3.03;;;;;;;25.04;53.29;100952.09;5066800;28;20048;-61
2023/09/05 01:10:11;;;;;;;9.52;3.35;;;;;;;25.18;52.90;100957.72;5047034;28;20049;-62
2023/09/05 01:12:39;;;;;;;7.28;3.35;;;;;;;25.19;52.71;100960.13;5015319;28;20053;-61
2023/09/05 01:15:08;;;;;;;7.65;3.22;;;;;;;25.17;53.13;100961.75;5048334;28;20053;-63
2023/09/05 01:17:35;;;;;;;9.60;3.17;;;;;;;25.16;52.72;100955.31;5052694;28;20068;-62
2023/09/05 01:20:04;;;;;;;7.55;3.13;;;;;;;25.01;53.16;100950.09;5037657;28;20049;-62
2023/09/05 01:22:49;;;;;;;8.02;3.10;;;;;;;24.95;52.88;100949.72;5031345;28;20059;-62
2023/09/05 01:25:17;;;;;;;8.20;3.30;;;;;;;24.73;53.37;100953.78;5055915;28;20057;-61
2023/09/05 01:27:48;;;;;;;10.27;3.45;;;;;;;24.55;53.92;100949.31;5032501;28;20057;-61
2023/09/05 01:30:16;;;;;;;6.07;2.95;;;;;;;24.30;54.66;100946.50;5046200;28;20049;-62
2023/09/05 01:32:43;;;;;;;7.85;3.50;;;;;;;24.53;54.95;100952.53;5034451;28;20048;-61
2023/09/05 01:35:11;;;;;;;6.80;3.22;;;;;;;24.59;54.74;100945.28;5052344;28;20083;-61
2023/09/05 01:37:38;;;;;;;8.40;3.05;;;;;;;24.70;54.17;100946.13;5063269;28;20651;-62
2023/09/05 01:40:07;;;;;;;5.50;3.25;;;;;;;24.77;53.76;100946.13;5058579;28;20049;-62
2023/09/05 01:42:34;;;;;;;10.00;3.40;;;;;;;24.84;54.03;100945.31;5045908;28;20041;-61
2023/09/05 01:45:01;;;;;;;8.20;3.05;;;;;;;24.85;53.51;100938.44;5047830;28;20048;-61
2023/09/05 01:47:29;;;;;;;7.72;3.20;;;;;;;24.66;54.02;100936.03;5051864;28;20535;-61
2023/09/05 01:49:56;;;;;;;5.10;3.20;;;;;;;24.50;54.81;100942.06;5051756;28;20056;-61
2023/09/05 01:52:23;;;;;;;6.25;3.35;;;;;;;24.47;54.60;100935.25;5080674;28;20059;-62
2023/09/05 01:54:52;;;;;;;5.57;3.28;;;;;;;24.42;54.13;100935.66;5070932;28;20609;-61
2023/09/05 01:57:19;;;;;;;6.63;3.40;;;;;;;24.42;54.79;100927.19;5068661;28;20052;-61
2023/09/05 01:59:46;;;;;;;4.80;3.10;;;;;;;24.43;54.19;100917.53;5055376;28;20071;-62
2023/09/05 02:02:14;;;;;;;7.68;3.05;;;;;;;24.32;54.68;100924.38;5030315;28;20049;-61
2023/09/05 02:04:41;;;;;;;8.38;3.40;;;;;;;24.33;54.96;100921.16;5035239;28;20053;-62
2023/09/05 02:07:09;;;;;;;7.07;3.40;;;;;;;24.10;55.19;100922.72;5049500;28;20048;-60
2023/09/05 02:09:36;;;;;;;5.93;3.15;;;;;;;24.03;55.43;100917.09;5052779;28;20080;-61
2023/09/05 02:12:04;;;;;;;5.45;3.20;;;;;;;23.82;55.82;100912.19;5050840;28;20059;-61
2023/09/05 02:14:32;;;;;;;7.78;3.22;;;;;;;23.79;56.42;100915.00;5049740;28;20056;-61
2023/09/05 02:17:00;;;;;;;8.25;2.90;;;;;;;23.88;56.13;100921.88;5051338;28;20059;-62
2023/09/05 02:19:28;;;;;;;6.63;3.10;;;;;;;24.04;55.58;100919.50;5051957;28;20052;-61
2023/09/05 02:21:57;;;;;;;7.93;3.17;;;;;;;24.20;55.24;100911.47;5051577;28;20053;-61
2023/09/05 02:24:26;;;;;;;8.32;3.50;;;;;;;23.88;55.68;100924.69;5047693;28;20041;-61
2023/09/05 02:26:54;;;;;;;10.75;3.70;;;;;;;23.99;55.29;100921.88;5052898;28;20063;-62
2023/09/05 02:29:25;;;;;;;7.60;3.97;;;;;;;23.92;55.50;100925.47;5053864;28;20053;-62
2023/09/05 02:31:53;;;;;;;5.22;3.63;;;;;;;24.00;56.11;100924.34;5054998;28;20786;-63
2023/09/05 02:34:21;;;;;;;5.20;3.33;;;;;;;24.01;56.20;100920.31;5054460;28;20059;-62
2023/09/05 02:36:48;;;;;;;8.57;3.70;;;;;;;24.22;55.24;100920.34;5056355;28;20041;-62
2023/09/05 02:39:15;;;;;;;7.93;3.67;;;;;;;24.13;55.33;100917.09;5057418;28;20048;-61
2023/09/05 02:41:43;;;;;;;10.07;3.55;;;;;;;24.33;55.45;100914.72;5055346;28;20045;-61
2023/09/05 02:44:10;;;;;;;8.25;3.42;;;;;;;24.38;54.77;100912.31;5054085;28;20352;-61
2023/09/05 02:46:37;;;;;;;7.43;3.67;;;;;;;24.35;54.92;100924.38;5053168;28;20052;-62
2023/09/05 02:49:05;;;;;;;6.85;3.40;;;;;;;24.31;54.93;100928.38;5054429;28;20510;-62
2023/09/05 02:51:32;;;;;;;8.63;3.33;;;;;;;24.31;54.63;100925.56;5068819;28;20414;-61
2023/09/05 02:54:00;;;;;;;6.38;3.20;;;;;;;24.15;55.03;100927.94;5075803;28;20063;-62
2023/09/05 02:56:27;;;;;;;5.18;3.30;;;;;;;24.27;55.18;100919.94;5060178;28;20066;-61
2023/09/05 02:58:55;;;;;;;9.23;3.30;;;;;;;24.20;55.39;100925.56;5054406;28;20519;-61
2023/09/05 03:01:22;;;;;;;6.22;3.40;;;;;;;24.19;54.98;100914.69;5061255;28;20052;-61
2023/09/05 03:03:51;;;;;;;6.95;3.55;;;;;;;24.28;55.30;100918.75;5046088;28;20496;-61
2023/09/05 03:06:18;;;;;;;4.90;3.10;;;;;;;24.32;54.23;100915.94;5057676;28;20072;-61
2023/09/05 03:08:46;;;;;;;5.63;3.15;;;;;;;24.13;54.79;100916.31;5036999;28;20068;-61
2023/09/05 03:11:18;;;;;;;7.75;3.53;;;;;;;23.82;55.69;100917.81;5035811;28;20041;-62
2023/09/05 03:13:46;;;;;;;7.28;3.30;;;;;;;23.81;55.66;100921.84;5053274;28;20048;-61
2023/09/05 03:16:14;;;;;;;9.68;3.78;;;;;;;23.91;56.14;100914.63;5052714;28;20057;-62
2023/09/05 03:18:46;;;;;;;7.13;3.28;;;;;;;24.01;56.19;100903.41;5052895;28;20053;-61
2023/09/05 03:21:13;;;;;;;5.18;3.33;;;;;;;24.05;55.65;100906.22;5052840;28;20045;-61
2023/09/05 03:23:41;;;;;;;5.78;3.50;;;;;;;23.89;54.85;100898.13;5054480;28;20053;-61
2023/09/05 03:26:08;;;;;;;10.52;3.17;;;;;;;24.02;56.08;100896.59;5052936;28;20555;-61
2023/09/05 03:28:44;;;;;;;7.65;3.58;;;;;;;23.77;55.86;100897.69;5053137;28;20555;-61
2023/09/05 03:31:14;;;;;;;5.45;3.42;;;;;;;23.86;56.18;100898.13;5051280;28;20503;-61
2023/09/05 03:33:42;;;;;;;5.85;3.30;;;;;;;23.52;56.80;100905.28;5054199;28;20084;-61
2023/09/05 03:36:11;;;;;;;7.57;3.28;;;;;;;23.78;56.99;100905.75;5052435;28;20049;-61
2023/09/05 03:38:38;;;;;;;10.43;3.60;;;;;;;23.96;56.16;100905.78;5053722;28;20152;-61
2023/09/05 03:41:06;;;;;;;8.32;3.00;;;;;;;23.87;55.95;100897.72;5073321;28;20060;-61
2023/09/05 03:43:33;;;;;;;6.90;3.42;;;;;;;23.74;56.05;100893.69;5084036;28;20064;-62
2023/09/05 03:46:00;;;;;;;7.03;3.50;;;;;;;23.71;56.66;100893.69;5052923;28;20052;-61
2023/09/05 03:48:28;;;;;;;5.95;3.10;;;;;;;23.89;56.37;100881.25;5052936;28;20051;-61
2023/09/05 03:50:55;;;;;;;6.05;3.30;;;;;;;23.69;56.23;100884.84;5051675;28;20736;-62
2023/09/05 03:53:23;;;;;;;7.93;4.05;;;;;;;23.69;56.47;100877.22;5057187;28;20053;-61
2023/09/05 03:55:51;;;;;;;7.68;3.30;;;;;;;23.65;57.16;100882.00;5049461;28;20053;-61
2023/09/05 03:58:18;;;;;;;7.97;3.22;;;;;;;23.75;56.46;100877.59;5027539;28;20053;-66
2023/09/05 04:00:45;;;;;;;12.32;3.20;;;;;;;23.79;56.91;100884.03;5068929;28;20986;-68
2023/09/05 04:03:14;;;;;;;9.15;3.50;;;;;;;23.74;55.82;100878.81;5073922;28;20052;-67
2023/09/05 04:05:42;;;;;;;8.27;3.30;;;;;;;23.56;56.66;100870.31;5062085;28;20052;-68
2023/09/05 04:08:09;;;;;;;7.47;3.90;;;;;;;23.48;56.86;100871.53;5049357;28;20150;-67
2023/09/05 04:10:38;;;;;;;12.38;3.80;;;;;;;23.41;57.29;100866.66;5052569;28;20282;-67
2023/09/05 04:13:05;;;;;;;4.65;3.20;;;;;;;23.32;57.38;100866.25;5036180;28;20045;-67
2023/09/05 04:15:32;;;;;;;5.88;3.22;;;;;;;23.34;57.92;100872.25;5053394;28;20060;-68
2023/09/05 04:18:00;;;;;;;8.85;3.50;;;;;;;23.28;58.17;100876.66;5052224;28;20463;-66
2023/09/05 04:20:31;;;;;;;6.72;3.58;;;;;;;23.11;57.85;100873.75;5051767;28;20070;-67
2023/09/05 04:22:58;;;;;;;5.97;3.33;;;;;;;23.34;58.37;100880.69;5052223;28;20052;-66
2023/09/05 04:25:26;;;;;;;8.02;3.60;;;;;;;23.34;57.74;100883.50;5052894;28;20060;-66
2023/09/05 04:27:53;;;;;;;6.88;3.40;;;;;;;23.35;58.16;100890.75;5041924;28;20056;-68
2023/09/05 04:30:21;;;;;;;6.70;3.42;;;;;;;23.67;57.13;100885.25;5053735;28;20045;-67
2023/09/05 04:32:49;;;;;;;6.25;3.60;;;;;;;23.72;57.27;100898.91;5052410;28;20398;-67
2023/09/05 04:35:18;;;;;;;5.75;3.38;;;;;;;23.75;56.92;100903.72;5035314;28;20049;-67
2023/09/05 04:37:45;;;;;;;6.68;3.70;;;;;;;23.75;57.21;100898.09;5035196;28;20041;-66
2023/09/05 04:40:13;;;;;;;5.05;3.35;;;;;;;23.45;57.50;100908.84;5064140;28;20059;-65
2023/09/05 04:42:41;;;;;;;6.90;3.47;;;;;;;23.41;57.79;100910.84;5057489;28;20049;-67
2023/09/05 04:45:09;;;;;;;8.10;3.78;;;;;;;23.27;57.55;100916.38;5051956;28;20124;-66
2023/09/05 04:47:38;;;;;;;7.93;3.38;;;;;;;23.30;58.79;100912.81;5052411;28;20048;-67
2023/09/05 04:50:08;;;;;;;10.27;3.88;;;;;;;23.33;58.34;100924.06;5054329;28;20045;-67
2023/09/05 04:52:36;;;;;;;8.90;3.75;;;;;;;23.48;58.30;100929.75;5057572;28;20549;-68
2023/09/05 04:55:04;;;;;;;6.55;3.60;;;;;;;23.27;59.34;100939.69;5051715;28;20693;-68
2023/09/05 04:57:31;;;;;;;6.25;3.83;;;;;;;23.52;58.23;100934.19;5035634;28;20048;-68
2023/09/05 04:59:59;;;;;;;9.10;3.20;;;;;;;23.76;57.86;100947.56;5062618;28;20414;-68
2023/09/05 05:02:28;;;;;;;5.95;3.40;;;;;;;23.87;57.67;100947.59;5057368;28;20555;-67
2023/09/05 05:04:56;;;;;;;8.45;3.65;;;;;;;23.77;57.40;100937.09;5059214;28;20059;-67
2023/09/05 05:07:23;;;;;;;6.97;3.25;;;;;;;23.74;57.45;100935.88;5045344;28;20050;-69
2023/09/05 05:09:51;;;;;;;8.43;3.70;;;;;;;23.80;57.52;100953.97;5051269;28;20527;-69
2023/09/05 05:12:18;;;;;;;6.32;3.70;;;;;;;23.82;57.57;100945.94;5034651;28;20044;-67
2023/09/05 05:14:45;;;;;;;6.97;3.45;;;;;;;23.81;60.39;100941.53;5052885;28;20056;-68
2023/09/05 05:17:13;;;;;;;7.10;3.78;;;;;;;23.87;60.84;100939.94;5052439;28;20052;-68
2023/09/05 05:19:41;;;;;;;12.40;4.30;;;;;;;23.79;63.38;100948.75;5051380;28;20660;-68
2023/09/05 05:22:08;;;;;;;15.82;4.88;;;;;;;23.67;62.93;100947.13;5045946;28;20037;-68
2023/09/05 05:24:36;;;;;;;10.88;4.18;;;;;;;23.38;59.58;100951.00;5065269;28;20052;-68
2023/09/05 05:27:04;;;;;;;12.52;4.07;;;;;;;23.29;61.65;100950.56;5045580;28;20045;-70
2023/09/05 05:29:32;;;;;;;8.25;3.65;;;;;;;23.37;63.91;100957.81;5054678;28;20055;-68
2023/09/05 05:32:00;;;;;;;10.60;3.90;;;;;;;23.56;63.74;100949.06;5049247;28;20045;-68
2023/09/05 05:34:30;;;;;;;9.98;3.90;;;;;;;23.87;64.33;100958.84;5049951;28;20053;-67
2023/09/05 05:36:57;;;;;;;8.65;3.60;;;;;;;23.76;63.56;100943.94;5056397;28;20061;-67
2023/09/05 05:39:25;;;;;;;6.60;3.38;;;;;;;23.57;62.85;100953.50;5057235;28;20044;-69
2023/09/05 05:41:53;;;;;;;6.90;3.58;;;;;;;23.63;61.93;100956.72;5045313;28;20229;-68
2023/09/05 05:44:21;;;;;;;8.40;3.60;;;;;;;23.07;60.34;100948.78;5040687;28;20053;-68
2023/09/05 05:46:48;;;;;;;9.02;4.13;;;;;;;23.02;60.98;100944.34;5051149;28;20452;-68
2023/09/05 05:49:16;;;;;;;10.23;4.10;;;;;;;23.35;61.90;100949.78;5040527;28;20051;-67
2023/09/05 05:51:43;;;;;;;11.10;4.20;;;;;;;23.00;60.42;100943.94;5045231;28;20060;-67
2023/09/05 05:54:10;;;;;;;7.75;4.00;;;;;;;23.27;61.33;100947.31;5042228;28;20048;-67
2023/09/05 05:56:38;;;;;;;7.88;3.95;;;;;;;23.40;60.17;100952.22;5043025;28;20049;-67
2023/09/05 05:59:06;;;;;;;10.30;4.00;;;;;;;23.15;59.70;100959.66;5031281;28;20456;-68
2023/09/05 06:01:34;;;;;;;10.82;6.63;;;;;;;23.17;58.94;100962.09;5044416;28;20072;-67
2023/09/05 06:04:01;;;;;;;6.65;3.85;;;;;;;22.79;59.65;100948.59;5040605;28;20041;-65
2023/09/05 06:06:29;;;;;;;9.75;4.88;;;;;;;22.88;60.00;100955.47;5045866;28;20056;-66
2023/09/05 06:08:56;;;;;;;7.40;3.70;;;;;;;23.06;60.31;100958.41;5048700;28;20052;-66
2023/09/05 06:11:24;;;;;;;9.85;4.20;;;;;;;22.91;59.79;100959.53;5047050;28;20046;-66
2023/09/05 06:13:52;;;;;;;9.15;3.83;;;;;;;22.83;59.81;100967.09;5042551;28;20041;-66
2023/09/05 06:16:20;;;;;;;12.80;4.63;;;;;;;23.19;59.08;100976.56;5036739;28;20553;-66
2023/09/05 06:18:48;;;;;;;14.73;4.40;;;;;;;23.67;59.33;100978.06;5048150;28;20049;-48
2023/09/05 06:21:15;;;;;;;12.73;4.43;;;;;;;24.12;58.08;100968.16;5050621;28;20148;-45
2023/09/05 06:23:43;;;;;;;13.00;4.30;;;;;;;24.06;56.17;100964.94;5047098;28;20846;-47
2023/09/05 06:26:10;;;;;;;8.90;4.22;;;;;;;24.55;56.99;100966.22;5050292;28;20076;-44
2023/09/05 06:28:38;;;;;;;9.77;4.03;;;;;;;25.09;55.99;100979.91;5041646;28;20049;-47
2023/09/05 06:31:05;;;;;;;16.83;4.70;;;;;;;25.31;55.77;100984.28;5064129;28;20077;-45
2023/09/05 06:33:33;;;;;;;21.58;8.93;;;;;;;25.33;53.91;100977.00;5050294;28;20041;-45
2023/09/05 06:36:07;;;;;;;7.90;3.83;;;;;;;25.43;54.28;100972.59;5054876;28;20048;-50
2023/09/05 06:38:34;;;;;;;17.77;5.82;;;;;;;25.30;54.10;100971.38;5057578;28;20052;-47
2023/09/05 06:41:09;;;;;;;15.00;6.15;;;;;;;25.21;53.50;100974.63;5038302;28;20052;-48
2023/09/05 06:43:37;;;;;;;16.73;5.78;;;;;;;25.19;53.85;100976.25;5043933;28;20056;-45
2023/09/05 06:46:06;;;;;;;14.57;4.65;;;;;;;25.06;52.71;100975.06;5051864;28;20518;-47
2023/09/05 06:48:35;;;;;;;13.70;4.70;;;;;;;25.20;55.31;100973.03;5047534;28;21024;-46
2023/09/05 06:51:02;;;;;;;25.15;5.40;;;;;;;25.08;54.36;100967.81;5049977;28;20124;-49
2023/09/05 06:53:31;;;;;;;14.55;4.95;;;;;;;25.20;52.46;100967.38;5043666;28;20048;-46
2023/09/05 06:55:58;;;;;;;10.93;4.97;;;;;;;25.05;54.33;100971.47;5040516;28;20049;-48
2023/09/05 06:58:26;;;;;;;11.68;5.30;;;;;;;25.14;53.55;100969.00;5048857;28;20057;-45
2023/09/05 07:00:54;;;;;;;15.93;5.55;;;;;;;25.18;52.15;100963.34;5046648;28;20057;-51
2023/09/05 07:03:23;;;;;;;16.67;5.32;;;;;;;25.07;54.40;100968.22;5047681;28;20045;-49
2023/09/05 07:05:52;;;;;;;10.18;4.43;;;;;;;25.00;54.36;100969.03;5045372;28;20547;-46
2023/09/05 07:08:33;;;;;;;16.15;4.88;;;;;;;24.97;54.47;100981.13;5048858;28;20518;-45
2023/09/05 07:11:01;;;;;;;13.30;4.40;;;;;;;25.09;54.46;100980.69;5062897;28;20053;-50
2023/09/05 07:13:28;;;;;;;14.20;4.70;;;;;;;25.11;54.04;100969.81;5047127;28;20045;-47
2023/09/05 07:15:57;;;;;;;9.05;4.10;;;;;;;25.21;53.47;100966.16;5045563;28;20040;-46
2023/09/05 07:18:25;;;;;;;8.88;4.22;;;;;;;25.11;53.54;100974.66;5042082;28;20044;-44
2023/09/05 07:20:53;;;;;;;15.23;4.82;;;;;;;25.22;53.54;100975.44;5047527;28;20060;-44
2023/09/05 07:23:20;;;;;;;7.85;4.20;;;;;;;25.04;53.94;100980.28;5046824;28;20065;-46
2023/09/05 07:25:49;;;;;;;15.45;4.13;;;;;;;24.94;54.23;100979.13;5048963;28;20064;-46
2023/09/05 07:28:16;;;;;;;8.88;3.95;;;;;;;25.01;54.46;100986.75;5043973;28;20057;-45
2023/09/05 07:30:43;;;;;;;11.38;3.92;;;;;;;24.99;54.17;100980.72;5049054;28;20041;-50
2023/09/05 07:33:12;;;;;;;10.10;4.05;;;;;;;24.73;54.71;100990.41;5039781;28;20045;-44
2023/09/05 07:35:39;;;;;;;14.02;4.53;;;;;;;24.87;55.14;100981.94;5047004;28;20051;-45
2023/09/05 07:38:07;;;;;;;8.43;3.53;;;;;;;25.10;55.00;100984.31;5050480;28;20056;-47
2023/09/05 07:40:34;;;;;;;9.05;3.80;;;;;;;24.56;55.52;100981.91;5048428;28;20045;-46
2023/09/05 07:43:03;;;;;;;9.93;3.60;;;;;;;24.64;55.62;100978.69;5037771;28;20049;-49
2023/09/05 07:45:32;;;;;;;12.13;3.80;;;;;;;24.69;55.54;100975.50;5047361;28;20064;-49
2023/09/05 07:47:59;;;;;;;13.80;4.38;;;;;;;24.48;55.97;100979.09;5051392;28;20049;-45
2023/09/05 07:50:27;;;;;;;18.02;4.40;;;;;;;24.50;55.66;100979.50;5059434;28;20056;-46
2023/09/05 07:52:54;;;;;;;13.18;4.80;;;;;;;24.56;55.40;100981.91;5044132;28;20802;-48
2023/09/05 07:55:22;;;;;;;14.88;4.70;;;;;;;24.55;55.36;100988.75;5045904;28;20041;-46
2023/09/05 07:57:51;;;;;;;21.40;4.90;;;;;;;24.39;56.29;100980.69;5042961;28;20064;-48
2023/09/05 08:00:19;;;;;;;24.85;5.15;;;;;;;24.52;56.01;100984.72;5043811;28;20045;-49
2023/09/05 08:02:46;;;;;;;9.70;3.60;;;;;;;24.29;56.04;100987.09;5049246;28;20314;-51
2023/09/05 08:05:14;;;;;;;10.13;3.97;;;;;;;24.08;57.31;100993.50;5044549;28;20052;-45
2023/09/05 08:07:41;;;;;;;10.90;4.10;;;;;;;23.93;58.06;100982.56;5044308;28;20051;-47
2023/09/05 08:10:09;;;;;;;10.27;4.22;;;;;;;24.30;56.82;100983.09;5043953;28;20052;-44
2023/09/05 08:12:36;;;;;;;16.30;4.25;;;;;;;24.49;56.42;100991.16;5027513;28;20054;-66
2023/09/05 08:15:07;;;;;;;13.77;4.43;;;;;;;24.65;56.29;100982.31;5042400;28;20037;-66
2023/09/05 08:17:36;;;;;;;19.92;4.45;;;;;;;24.46;56.69;100989.94;5040935;28;20523;-68
2023/09/05 08:20:04;;;;;;;12.40;4.40;;;;;;;24.67;56.15;100991.19;5029820;28;20045;-65
2023/09/05 08:22:32;;;;;;;17.73;6.10;;;;;;;24.71;56.45;100989.19;5049083;28;20057;-66
2023/09/05 08:24:59;;;;;;;11.15;3.97;;;;;;;24.65;56.33;100993.59;5053536;28;20050;-66
2023/09/05 08:27:30;;;;;;;14.30;4.60;;;;;;;24.84;56.35;100993.22;5039335;28;20057;-66
2023/09/05 08:29:57;;;;;;;9.27;4.20;;;;;;;25.00;55.45;100991.56;5048194;28;20056;-67
2023/09/05 08:32:25;;;;;;;12.38;4.03;;;;;;;25.28;54.67;100988.72;5048287;28;20041;-66
2023/09/05 08:34:52;;;;;;;13.73;4.55;;;;;;;25.24;55.07;100993.56;5045617;28;20053;-65
2023/09/05 08:37:20;;;;;;;13.63;4.13;;;;;;;25.37;55.06;100991.94;5031906;28;20056;-67
2023/09/05 08:39:48;;;;;;;11.32;4.22;;;;;;;25.55;54.24;100991.91;5044879;28;20053;-66
2023/09/05 08:42:16;;;;;;;11.88;4.28;;;;;;;25.66;53.97;100989.03;5036302;28;20059;-66
2023/09/05 08:44:44;;;;;;;17.13;4.70;;;;;;;25.31;55.28;100996.38;5052256;28;20052;-67
2023/09/05 08:47:11;;;;;;;14.55;4.22;;;;;;;25.25;54.77;100998.00;5044143;28;20057;-67
2023/09/05 08:49:38;;;;;;;8.45;3.83;;;;;;;25.21;55.44;100990.75;5044062;28;20049;-66
2023/09/05 08:52:06;;;;;;;11.88;4.28;;;;;;;25.46;54.97;101002.81;5048844;28;20057;-67
2023/09/05 08:54:34;;;;;;;11.27;4.13;;;;;;;25.67;54.60;101004.75;5049364;28;20045;-66
2023/09/05 08:57:05;;;;;;;9.93;4.43;;;;;;;26.06;53.85;101008.25;5044380;28;20054;-67
2023/09/05 08:59:32;;;;;;;14.15;5.82;;;;;;;25.83;53.87;101007.91;5042001;28;20751;-66
2023/09/05 09:02:01;;;;;;;14.40;4.20;;;;;;;25.66;54.17;101006.78;5047565;28;20510;-66
2023/09/05 09:04:29;;;;;;;17.38;5.70;;;;;;;25.68;54.53;101009.19;5039229;28;20076;-66
2023/09/05 09:07:00;;;;;;;13.93;5.10;;;;;;;25.86;54.48;101002.25;5045008;28;20049;-66
2023/09/05 09:09:39;;;;;;;14.68;4.45;;;;;;;25.81;54.12;101001.88;5045303;28;20067;-67
2023/09/05 09:12:07;;;;;;;13.27;4.00;;;;;;;26.02;54.01;100998.94;5054845;28;20049;-66
2023/09/05 09:14:36;;;;;;;11.23;3.97;;;;;;;26.06;53.72;101011.88;5037858;28;20073;-66
2023/09/05 09:17:05;;;;;;;15.18;5.78;;;;;;;26.03;54.09;101015.50;5043530;28;20700;-67
2023/09/05 09:19:32;;;;;;;11.68;4.35;;;;;;;26.18;53.85;101002.13;5047248;28;20060;-67
2023/09/05 09:22:02;;;;;;;11.15;4.78;;;;;;;26.24;53.54;101008.97;5030272;28;20069;-67
2023/09/05 09:24:33;;;;;;;9.43;4.45;;;;;;;26.34;53.28;101008.06;5022219;28;20052;-67
2023/09/05 09:27:03;;;;;;;9.70;4.18;;;;;;;26.38;53.23;100992.69;5049773;28;20044;-68
2023/09/05 09:29:31;;;;;;;18.55;6.85;;;;;;;26.38;53.11;101003.19;5049341;28;20052;-67
2023/09/05 09:32:05;;;;;;;12.43;4.55;;;;;;;26.40;52.80;101000.75;5035799;28;20045;-68
2023/09/05 09:34:35;;;;;;;11.75;3.90;;;;;;;26.71;52.34;100996.91;5051578;28;20419;-67
2023/09/05 09:37:03;;;;;;;13.52;4.28;;;;;;;26.86;51.99;100998.41;5051159;28;20057;-66
2023/09/05 09:39:32;;;;;;;13.52;4.43;;;;;;;27.09;51.29;100994.97;5047975;28;20049;-66
2023/09/05 09:42:00;;;;;;;8.30;4.13;;;;;;;27.18;51.26;100995.28;5039573;28;20049;-67
2023/09/05 09:44:34;;;;;;;9.57;4.35;;;;;;;26.96;51.69;100983.38;5044128;28;20049;-66
2023/09/05 09:47:03;;;;;;;10.82;4.20;;;;;;;26.36;53.21;100992.31;5048004;28;20048;-68
2023/09/05 09:49:31;;;;;;;9.82;4.50;;;;;;;26.51;53.39;100988.19;5047527;28;20063;-67
2023/09/05 09:52:03;;;;;;;16.55;6.70;;;;;;;26.74;52.78;100986.81;5055799;28;20063;-66
2023/09/05 09:54:37;;;;;;;12.50;4.50;;;;;;;26.74;52.20;100993.28;5049489;28;20052;-68
2023/09/05 09:57:05;;;;;;;8.98;4.22;;;;;;;26.92;52.39;100979.00;5037663;28;20045;-66
2023/09/05 09:59:35;;;;;;;12.30;5.18;;;;;;;27.06;51.93;100978.84;5046427;28;20049;-66
2023/09/05 10:02:07;;;;;;;12.98;5.95;;;;;;;26.86;52.19;100984.28;5036303;28;20416;-65
2023/09/05 10:04:40;;;;;;;13.95;4.50;;;;;;;26.86;52.67;100978.63;5039461;28;20060;-67
2023/09/05 10:07:14;;;;;;;15.32;4.78;;;;;;;27.18;51.79;100976.28;5047259;28;20053;-67
2023/09/05 10:09:44;;;;;;;15.13;4.53;;;;;;;27.25;51.47;100978.25;5040724;28;20072;-66
2023/09/05 10:12:14;;;;;;;7.43;3.90;;;;;;;27.30;51.59;100972.16;5036724;28;20061;-65
2023/09/05 10:14:42;;;;;;;10.88;3.80;;;;;;;27.41;50.60;100976.47;5033609;28;20048;-66
2023/09/05 10:17:13;;;;;;;15.48;4.35;;;;;;;27.37;51.12;100972.88;5033851;28;20056;-66
2023/09/05 10:19:43;;;;;;;10.30;4.00;;;;;;;27.72;50.66;100971.66;5036626;28;20424;-65
2023/09/05 10:22:27;;;;;;;11.65;4.57;;;;;;;27.61;50.45;100968.16;5043166;28;20056;-67
2023/09/05 10:25:26;;;;;;;11.75;6.25;;;;;;;27.65;49.89;100980.25;5037081;28;20044;-67
2023/09/05 10:27:54;;;;;;;16.58;5.57;;;;;;;27.26;50.79;100966.50;5046827;28;20049;-66
2023/09/05 10:30:21;;;;;;;8.90;4.35;;;;;;;27.39;50.61;100972.47;5047271;28;20507;-67
2023/09/05 10:32:52;;;;;;;13.43;4.50;;;;;;;27.57;50.54;100970.22;5039018;28;20420;-67
2023/09/05 10:35:20;;;;;;;9.32;4.05;;;;;;;27.68;49.37;100973.72;5043439;28;20053;-66
2023/09/05 10:38:01;;;;;;;15.15;4.90;;;;;;;27.84;49.29;100962.59;5041830;28;20058;-67
2023/09/05 10:40:33;;;;;;;11.98;6.35;;;;;;;27.94;48.80;100964.50;5031890;28;20455;-67
2023/09/05 10:43:04;;;;;;;14.60;4.65;;;;;;;28.15;48.57;100958.56;5037636;28;20424;-65
2023/09/05 10:45:33;;;;;;;13.52;7.13;;;;;;;28.05;48.05;100956.69;5043105;28;20049;-67
2023/09/05 10:48:04;;;;;;;15.88;4.88;;;;;;;28.11;47.90;100949.28;5047887;28;20053;-66
2023/09/05 10:50:32;;;;;;;13.25;6.00;;;;;;;28.30;47.20;100945.75;5050799;28;20053;-71
2023/09/05 10:53:12;;;;;;;11.55;4.47;;;;;;;28.40;46.71;100949.66;5050849;28;20060;-71
2023/09/05 10:55:46;;;;;;;16.48;5.70;;;;;;;28.47;46.24;100947.50;5054294;28;20700;-69
2023/09/05 10:58:38;;;;;;;18.95;5.50;;;;;;;28.33;45.89;100942.06;5044837;28;20049;-71
2023/09/05 11:01:29;;;;;;;13.15;5.93;;;;;;;28.54;44.82;100943.81;5053356;28;20061;-70
2023/09/05 11:04:03;;;;;;;18.70;4.45;;;;;;;28.56;45.10;100944.16;5044587;28;20049;-68
2023/09/05 11:06:31;;;;;;;8.38;4.10;;;;;;;28.96;43.78;100947.94;5053022;28;20045;-70
2023/09/05 11:09:02;;;;;;;14.98;4.88;;;;;;;29.04;43.30;100953.03;5041953;28;20049;-67
2023/09/05 11:11:30;;;;;;;10.27;3.60;;;;;;;28.88;42.61;100949.28;5020386;28;20053;-67
2023/09/05 11:13:57;;;;;;;10.93;4.10;;;;;;;29.00;42.26;100955.13;5051152;28;20315;-67
2023/09/05 11:16:25;;;;;;;10.20;3.67;;;;;;;29.09;41.88;100955.38;5049454;28;20058;-67
2023/09/05 11:18:56;;;;;;;12.75;4.47;;;;;;;29.18;41.74;100955.63;5051316;28;20057;-67
2023/09/05 11:21:24;;;;;;;14.88;3.90;;;;;;;29.03;41.87;100962.75;5050063;28;20052;-68
2023/09/05 11:23:53;;;;;;;10.55;3.45;;;;;;;29.15;41.50;100961.38;5050923;28;20052;-66
2023/09/05 11:26:21;;;;;;;6.40;3.42;;;;;;;29.36;41.43;100952.47;5046653;28;20049;-68
2023/09/05 11:28:51;;;;;;;6.13;2.97;;;;;;;29.59;40.65;100949.53;5052825;28;20048;-64